Time;durP1;ratioP1;P1;durP2;ratioP2;P2;SDS_P1;SDS_P2;PMS_P1;PMS_P2;Temp;Humidity;BMP_temperature;BMP_pressure;BME280_temperature;BME280_humidity;BME280_pressure;Samples;Min_cycle;Max_cycle;Signal;HPM_P1;HPM_P2
2022/06/09 00:00:53;0.00;0.00;0.62;0.00;0.00;0.62;1.57;1.00;;;25.80;34.70;;;;;;2255297;61;20792;-47
2022/06/09 00:03:44;0.00;0.00;0.62;0.00;0.00;0.62;2.80;1.20;;;25.80;34.80;;;;;;2254400;61;20420;-48
2022/06/09 00:06:37;0.00;0.00;0.62;0.00;0.00;0.62;1.63;1.10;;;25.70;34.90;;;;;;2255705;61;20386;-49
2022/06/09 00:09:29;0.00;0.00;0.62;0.00;0.00;0.62;1.50;0.97;;;25.70;35.00;;;;;;2254882;61;20881;-52
2022/06/09 00:12:14;0.00;0.00;0.62;0.00;0.00;0.62;1.97;1.20;;;25.60;35.00;;;;;;2255488;61;20424;-51
2022/06/09 00:14:59;0.00;0.00;0.62;0.00;0.00;0.62;2.10;1.27;;;25.60;35.10;;;;;;2255468;61;20366;-48
2022/06/09 00:17:45;0.00;0.00;0.62;0.00;0.00;0.62;2.40;1.33;;;25.60;35.20;;;;;;2255189;58;20370;-50
2022/06/09 00:20:31;0.00;0.00;0.62;0.00;0.00;0.62;2.17;1.20;;;25.50;35.90;;;;;;2255566;61;20460;-52
2022/06/09 00:23:17;0.00;0.00;0.62;0.00;0.00;0.62;2.13;1.10;;;25.50;35.30;;;;;;2255568;61;20588;-50
2022/06/09 00:26:02;0.00;0.00;0.62;0.00;0.00;0.62;2.30;1.60;;;25.50;35.40;;;;;;2254492;61;20938;-48
2022/06/09 00:28:48;0.00;0.00;0.62;0.00;0.00;0.62;1.97;1.07;;;25.50;35.40;;;;;;2255721;61;20358;-54
2022/06/09 00:31:33;0.00;0.00;0.62;0.00;0.00;0.62;2.30;1.17;;;25.40;35.40;;;;;;2254776;61;20388;-53
2022/06/09 00:34:18;0.00;0.00;0.62;0.00;0.00;0.62;3.70;1.30;;;25.40;35.40;;;;;;2255240;61;20362;-50
2022/06/09 00:37:04;0.00;0.00;0.62;0.00;0.00;0.62;3.00;1.63;;;25.40;35.50;;;;;;2255643;61;20936;-52
2022/06/09 00:39:49;0.00;0.00;0.62;0.00;0.00;0.62;2.80;1.37;;;25.30;35.50;;;;;;2254501;61;20390;-50
2022/06/09 00:42:34;0.00;0.00;0.62;0.00;0.00;0.62;1.70;1.13;;;25.30;35.60;;;;;;2255124;61;20493;-52
2022/06/09 00:45:32;0.00;0.00;0.62;0.00;0.00;0.62;1.70;1.13;;;25.30;35.60;;;;;;2255446;61;20492;-51
2022/06/09 00:48:28;0.00;0.00;0.62;0.00;0.00;0.62;1.67;1.30;;;25.20;35.60;;;;;;2254704;61;20405;-51
2022/06/09 00:51:34;0.00;0.00;0.62;0.00;0.00;0.62;2.60;1.63;;;25.20;35.60;;;;;;2255177;61;20913;-51
2022/06/09 00:54:26;0.00;0.00;0.62;0.00;0.00;0.62;2.53;1.60;;;25.10;35.70;;;;;;2254446;61;20446;-51
2022/06/09 00:57:17;0.00;0.00;0.62;0.00;0.00;0.62;2.03;1.43;;;25.10;35.80;;;;;;2255335;61;20455;-49
2022/06/09 01:00:08;0.00;0.00;0.62;0.00;0.00;0.62;2.20;1.70;;;25.00;35.70;;;;;;2255552;61;20386;-50
2022/06/09 01:02:56;0.00;0.00;0.62;0.00;0.00;0.62;3.37;1.60;;;25.00;35.80;;;;;;2254303;61;20389;-50
2022/06/09 01:05:42;0.00;0.00;0.62;0.00;0.00;0.62;4.23;2.00;;;24.90;36.50;;;;;;2255083;61;20369;-52
2022/06/09 01:08:30;0.00;0.00;0.62;0.00;0.00;0.62;2.57;1.70;;;24.90;35.90;;;;;;2254784;61;20865;-49
2022/06/09 01:11:16;0.00;0.00;0.62;0.00;0.00;0.62;2.07;1.87;;;24.80;35.90;;;;;;2254972;61;20378;-49
2022/06/09 01:14:02;0.00;0.00;0.62;0.00;0.00;0.62;4.13;1.97;;;24.80;36.00;;;;;;2255184;61;20370;-51
2022/06/09 01:17:04;0.00;0.00;0.62;0.00;0.00;0.62;4.27;2.20;;;24.70;36.10;;;;;;2254243;61;20450;-53
2022/06/09 01:20:04;0.00;0.00;0.62;0.00;0.00;0.62;4.17;2.30;;;24.70;36.20;;;;;;2255227;61;20410;-48
2022/06/09 01:23:41;0.00;0.00;0.62;0.00;0.00;0.62;2.90;2.37;;;24.60;36.20;;;;;;2255427;61;20823;-51
2022/06/09 01:27:22;0.00;0.00;0.62;0.00;0.00;0.62;5.20;2.43;;;24.60;36.20;;;;;;2243767;61;20402;-54
2022/06/09 01:30:14;0.00;0.00;0.62;0.00;0.00;0.62;6.47;2.77;;;24.50;36.20;;;;;;2244403;61;20415;-49
2022/06/09 01:33:12;0.00;0.00;0.62;0.00;0.00;0.62;3.97;2.37;;;24.50;36.30;;;;;;2254738;61;20436;-52
2022/06/09 01:36:07;0.00;0.00;0.62;0.00;0.00;0.62;3.60;3.30;;;24.40;36.30;;;;;;2255232;61;20374;-54
2022/06/09 01:38:54;0.00;0.00;0.62;0.00;0.00;0.62;2.87;2.57;;;24.40;36.40;;;;;;2254277;61;20357;-52
2022/06/09 01:41:46;0.00;0.00;0.62;0.00;0.00;0.62;3.23;2.70;;;24.40;36.40;;;;;;2255849;61;20435;-50
2022/06/09 01:44:31;0.00;0.00;0.62;0.00;0.00;0.62;4.23;3.10;;;24.40;36.50;;;;;;2255956;61;20796;-49
2022/06/09 01:47:20;0.00;0.00;0.62;0.00;0.00;0.62;3.83;3.00;;;24.40;36.50;;;;;;2255025;61;20365;-53
2022/06/09 01:50:12;0.00;0.00;0.62;0.00;0.00;0.62;4.17;3.20;;;24.40;36.40;;;;;;2256292;61;20766;-51
2022/06/09 01:53:01;0.00;0.00;0.62;0.00;0.00;0.62;3.70;3.30;;;24.40;36.40;;;;;;2254984;61;20389;-49
2022/06/09 01:55:52;0.00;0.00;0.62;0.00;0.00;0.62;3.60;3.30;;;24.50;36.40;;;;;;2256128;61;20409;-50
2022/06/09 01:58:43;0.00;0.00;0.62;0.00;0.00;0.62;4.17;3.57;;;24.50;37.00;;;;;;2256137;61;20420;-55
2022/06/09 02:01:34;0.00;0.00;0.62;0.00;0.00;0.62;3.80;3.40;;;24.50;36.90;;;;;;2254350;61;20459;-54
2022/06/09 02:04:23;0.00;0.00;0.62;0.00;0.00;0.62;5.83;3.67;;;24.60;36.20;;;;;;2256127;61;20773;-55
2022/06/09 02:07:10;0.00;0.00;0.62;0.00;0.00;0.62;5.00;4.33;;;24.60;36.20;;;;;;2256016;61;20361;-56
2022/06/09 02:09:55;0.00;0.00;0.62;0.00;0.00;0.62;5.10;4.00;;;24.60;36.20;;;;;;2254953;61;20363;-51
2022/06/09 02:12:39;0.00;0.00;0.62;0.00;0.00;0.62;5.47;4.13;;;24.60;36.10;;;;;;2255780;61;20389;-52
2022/06/09 02:15:32;0.00;0.00;0.62;0.00;0.00;0.62;4.73;4.20;;;24.60;36.00;;;;;;2254840;61;20400;-53
2022/06/09 02:18:20;0.00;0.00;0.62;0.00;0.00;0.62;4.97;4.37;;;24.60;36.00;;;;;;2255529;61;20374;-49
2022/06/09 02:21:09;0.00;0.00;0.62;0.00;0.00;0.62;4.57;4.13;;;24.50;36.00;;;;;;2255664;61;20834;-52
2022/06/09 02:23:56;0.00;0.00;0.62;0.00;0.00;0.62;6.43;5.33;;;24.50;36.10;;;;;;2254774;61;20417;-50
2022/06/09 02:26:41;0.00;0.00;0.62;0.00;0.00;0.62;7.33;5.67;;;24.50;36.10;;;;;;2255786;61;20774;-51
2022/06/09 02:29:26;0.00;0.00;0.62;0.00;0.00;0.62;6.70;5.30;;;24.40;36.10;;;;;;2255900;61;20400;-50
2022/06/09 02:32:10;0.00;0.00;0.62;0.00;0.00;0.62;6.53;5.80;;;24.40;36.30;;;;;;2255152;61;20417;-51
2022/06/09 02:34:55;0.00;0.00;0.62;0.00;0.00;0.62;7.07;5.40;;;24.30;36.30;;;;;;2255554;61;20365;-53
2022/06/09 02:37:39;0.00;0.00;0.62;0.00;0.00;0.62;7.03;6.33;;;24.30;36.40;;;;;;2254913;61;20365;-52
2022/06/09 02:40:25;0.00;0.00;0.62;0.00;0.00;0.62;7.37;6.67;;;24.20;36.30;;;;;;2255658;61;20389;-48
2022/06/09 02:43:10;0.00;0.00;0.62;0.00;0.00;0.62;10.33;6.00;;;24.20;37.00;;;;;;2255699;61;20471;-49
2022/06/09 02:45:56;0.00;0.00;0.62;0.00;0.00;0.62;6.50;5.87;;;24.20;36.40;;;;;;2254948;61;20393;-50
2022/06/09 02:48:41;0.00;0.00;0.62;0.00;0.00;0.62;6.80;6.20;;;24.20;36.40;;;;;;2256194;61;20369;-50
2022/06/09 02:51:29;0.00;0.00;0.62;0.00;0.00;0.62;7.47;6.77;;;24.30;36.50;;;;;;2255423;61;20413;-55
2022/06/09 02:54:14;0.00;0.00;0.62;0.00;0.00;0.62;8.23;6.97;;;24.20;37.10;;;;;;2254770;61;20494;-50
2022/06/09 02:57:00;0.00;0.00;0.62;0.00;0.00;0.62;8.87;7.57;;;24.30;36.50;;;;;;2255870;61;20433;-55
2022/06/09 02:59:45;0.00;0.00;0.62;0.00;0.00;0.62;8.57;7.03;;;24.20;36.40;;;;;;2254814;61;20922;-51
2022/06/09 03:02:29;0.00;0.00;0.62;0.00;0.00;0.62;14.30;8.90;;;24.20;36.30;;;;;;2255492;61;20440;-50
2022/06/09 03:05:14;0.00;0.00;0.62;0.00;0.00;0.62;9.20;8.33;;;24.20;36.40;;;;;;2255968;61;20890;-53
2022/06/09 03:07:59;0.00;0.00;0.62;0.00;0.00;0.62;10.00;9.00;;;24.20;36.40;;;;;;2254656;61;20366;-50
2022/06/09 03:10:43;0.00;0.00;0.62;0.00;0.00;0.62;9.67;8.63;;;24.20;36.50;;;;;;2255711;61;20370;-50
2022/06/09 03:13:30;0.00;0.00;0.62;0.00;0.00;0.62;9.00;7.80;;;24.10;36.50;;;;;;2255406;61;20358;-51
2022/06/09 03:16:16;0.00;0.00;0.62;0.00;0.00;0.62;11.07;10.07;;;24.10;36.70;;;;;;2254798;61;20374;-48
2022/06/09 03:19:01;0.00;0.00;0.62;0.00;0.00;0.62;11.53;10.17;;;24.10;36.60;;;;;;2255718;61;20369;-55
2022/06/09 03:21:45;0.00;0.00;0.62;0.00;0.00;0.62;10.43;9.43;;;24.10;36.70;;;;;;2254526;61;20823;-53
2022/06/09 03:24:30;0.00;0.00;0.62;0.00;0.00;0.62;13.60;9.10;;;24.00;36.70;;;;;;2255493;61;20413;-53
2022/06/09 03:27:15;0.00;0.00;0.62;0.00;0.00;0.62;9.60;8.60;;;24.00;36.90;;;;;;2255877;61;20465;-51
2022/06/09 03:30:01;0.00;0.00;0.62;0.00;0.00;0.62;10.77;9.63;;;24.00;36.90;;;;;;2254519;61;20445;-52
2022/06/09 03:32:45;0.00;0.00;0.62;0.00;0.00;0.62;10.93;9.50;;;23.90;36.80;;;;;;2255512;61;20397;-52
2022/06/09 03:35:31;0.00;0.00;0.62;0.00;0.00;0.62;12.03;10.20;;;23.90;36.90;;;;;;2254990;61;20761;-53
2022/06/09 03:38:17;0.00;0.00;0.62;0.00;0.00;0.62;10.47;9.57;;;23.90;37.00;;;;;;2278908;58;20373;-55
2022/06/09 03:41:02;0.00;0.00;0.62;0.00;0.00;0.62;10.63;9.13;;;23.80;37.10;;;;;;2254358;61;20436;-54
2022/06/09 03:43:47;0.00;0.00;0.62;0.00;0.00;0.62;9.90;8.90;;;23.80;37.10;;;;;;2253929;61;20796;-58
2022/06/09 03:46:33;0.00;0.00;0.62;0.00;0.00;0.62;10.67;9.13;;;23.80;37.10;;;;;;2254121;61;20370;-54
2022/06/09 03:49:18;0.00;0.00;0.62;0.00;0.00;0.62;10.43;9.43;;;23.70;37.20;;;;;;2255565;61;20800;-55
2022/06/09 03:52:04;0.00;0.00;0.62;0.00;0.00;0.62;12.77;10.27;;;23.70;37.20;;;;;;2254252;61;20401;-50
2022/06/09 03:54:49;0.00;0.00;0.62;0.00;0.00;0.62;12.20;10.60;;;23.70;37.30;;;;;;2255604;61;20381;-51
2022/06/09 03:57:34;0.00;0.00;0.62;0.00;0.00;0.62;11.00;10.00;;;23.60;37.40;;;;;;2255505;61;20848;-47
2022/06/09 04:00:23;0.00;0.00;0.62;0.00;0.00;0.62;10.73;9.77;;;23.60;38.20;;;;;;2253838;61;20393;-52
2022/06/09 04:03:09;0.00;0.00;0.62;0.00;0.00;0.62;11.00;9.37;;;23.60;38.30;;;;;;2255446;61;20448;-53
2022/06/09 04:05:54;0.00;0.00;0.62;0.00;0.00;0.62;8.80;8.00;;;23.50;37.60;;;;;;2255244;61;20410;-50
2022/06/09 04:08:39;0.00;0.00;0.62;0.00;0.00;0.62;10.47;9.47;;;23.50;37.70;;;;;;2254923;61;20454;-54
2022/06/09 04:11:24;0.00;0.00;0.62;0.00;0.00;0.62;8.63;7.90;;;23.50;37.70;;;;;;2255475;61;20378;-51
2022/06/09 04:14:08;0.00;0.00;0.62;0.00;0.00;0.62;13.23;9.03;;;23.50;37.80;;;;;;2254135;61;20815;-52
2022/06/09 04:16:55;0.00;0.00;0.62;0.00;0.00;0.62;8.33;7.53;;;23.50;37.90;;;;;;2255621;61;20361;-50
2022/06/09 04:19:41;0.00;0.00;0.62;0.00;0.00;0.62;9.00;8.20;;;23.40;37.80;;;;;;2255467;61;20921;-50
2022/06/09 04:22:26;0.00;0.00;0.62;0.00;0.00;0.62;12.07;8.57;;;23.40;37.80;;;;;;2254025;61;20402;-48
2022/06/09 04:25:12;0.00;0.00;0.62;0.00;0.00;0.62;8.97;7.97;;;23.40;38.20;;;;;;2255727;61;20405;-48
2022/06/09 04:27:56;0.00;0.00;0.62;0.00;0.00;0.62;11.27;9.03;;;23.40;38.10;;;;;;2255495;61;20370;-48
2022/06/09 04:30:41;0.00;0.00;0.62;0.00;0.00;0.62;10.40;9.30;;;23.40;38.30;;;;;;2255302;61;20404;-49
2022/06/09 04:33:26;0.00;0.00;0.62;0.00;0.00;0.62;10.73;8.00;;;23.30;38.30;;;;;;2255456;61;20462;-49
2022/06/09 04:36:16;0.00;0.00;0.62;0.00;0.00;0.62;9.03;8.10;;;23.30;38.30;;;;;;2254394;61;20370;-48
2022/06/09 04:39:02;0.00;0.00;0.62;0.00;0.00;0.62;9.87;7.80;;;23.30;38.40;;;;;;2255471;61;20783;-50
2022/06/09 04:41:46;0.00;0.00;0.62;0.00;0.00;0.62;9.53;8.50;;;23.30;38.40;;;;;;2254718;61;20421;-52
2022/06/09 04:44:31;0.00;0.00;0.62;0.00;0.00;0.62;9.50;8.60;;;23.30;38.30;;;;;;2253843;61;20370;-53
2022/06/09 04:47:15;0.00;0.00;0.62;0.00;0.00;0.62;12.13;9.60;;;23.20;38.50;;;;;;2255514;61;20408;-53
2022/06/09 04:50:00;0.00;0.00;0.62;0.00;0.00;0.62;8.70;7.87;;;23.20;38.50;;;;;;2255555;61;20830;-49
2022/06/09 04:52:47;0.00;0.00;0.62;0.00;0.00;0.62;10.80;8.57;;;23.20;38.50;;;;;;2254819;61;20815;-52
2022/06/09 04:55:31;0.00;0.00;0.62;0.00;0.00;0.62;10.57;8.00;;;23.20;38.50;;;;;;2255508;61;20500;-49
2022/06/09 04:58:16;0.00;0.00;0.62;0.00;0.00;0.62;9.30;8.40;;;23.20;38.50;;;;;;2254674;61;20881;-48
2022/06/09 05:01:01;0.00;0.00;0.62;0.00;0.00;0.62;9.90;8.40;;;23.20;38.50;;;;;;2255266;61;20429;-49
2022/06/09 05:03:46;0.00;0.00;0.62;0.00;0.00;0.62;12.97;9.07;;;23.20;38.50;;;;;;2254829;61;20361;-51
2022/06/09 05:06:31;0.00;0.00;0.62;0.00;0.00;0.62;9.43;8.20;;;23.30;38.50;;;;;;2254388;61;20394;-49
2022/06/09 05:09:17;0.00;0.00;0.62;0.00;0.00;0.62;11.20;9.40;;;23.30;38.60;;;;;;2255302;61;20504;-51
2022/06/09 05:12:04;0.00;0.00;0.62;0.00;0.00;0.62;9.37;8.47;;;23.30;38.60;;;;;;2255190;61;20428;-50
2022/06/09 05:14:49;0.00;0.00;0.62;0.00;0.00;0.62;10.40;8.43;;;23.30;38.50;;;;;;2255007;61;20473;-52
2022/06/09 05:17:34;0.00;0.00;0.62;0.00;0.00;0.62;10.27;9.30;;;23.30;38.50;;;;;;2258390;61;20820;-50
2022/06/09 05:20:21;0.00;0.00;0.62;0.00;0.00;0.62;9.77;8.77;;;23.30;38.50;;;;;;2255346;61;21288;-55
2022/06/09 05:23:06;0.00;0.00;0.62;0.00;0.00;0.62;11.93;9.07;;;23.30;38.30;;;;;;2255751;61;20789;-55
2022/06/09 05:25:55;0.00;0.00;0.62;0.00;0.00;0.62;9.30;8.33;;;23.30;38.30;;;;;;2256021;61;20373;-51
2022/06/09 05:28:40;0.00;0.00;0.62;0.00;0.00;0.62;10.10;9.00;;;23.30;38.40;;;;;;2255107;61;20374;-51
2022/06/09 05:31:24;0.00;0.00;0.62;0.00;0.00;0.62;9.43;8.03;;;23.30;38.30;;;;;;2255638;61;20381;-51
2022/06/09 05:34:09;0.00;0.00;0.62;0.00;0.00;0.62;11.67;8.90;;;23.30;38.30;;;;;;2256203;61;20366;-51
2022/06/09 05:36:54;0.00;0.00;0.62;0.00;0.00;0.62;8.37;7.20;;;23.40;38.50;;;;;;2254897;61;20416;-53
2022/06/09 05:45:47;0.00;0.00;0.62;0.00;0.00;0.62;8.63;7.73;;;23.40;38.50;;;;;;2255717;61;20465;-53
2022/06/09 05:48:32;0.00;0.00;0.62;0.00;0.00;0.62;10.40;8.83;;;23.40;38.60;;;;;;2256207;61;20365;-51
2022/06/09 05:51:18;0.00;0.00;0.62;0.00;0.00;0.62;9.87;8.93;;;23.30;38.60;;;;;;2254851;61;20389;-51
2022/06/09 05:54:03;0.00;0.00;0.62;0.00;0.00;0.62;7.40;6.70;;;23.40;38.70;;;;;;2255758;61;20442;-52
2022/06/09 05:56:48;0.00;0.00;0.62;0.00;0.00;0.62;10.63;8.27;;;23.40;38.70;;;;;;2256181;61;20379;-50
2022/06/09 05:59:35;0.00;0.00;0.62;0.00;0.00;0.62;9.33;8.10;;;23.40;38.80;;;;;;2255527;61;20877;-51
2022/06/09 06:02:24;0.00;0.00;0.62;0.00;0.00;0.62;10.37;9.37;;;23.40;38.80;;;;;;2255825;61;20404;-49
2022/06/09 06:06:33;0.00;0.00;0.62;0.00;0.00;0.62;8.57;7.77;;;23.30;38.80;;;;;;2254924;61;20377;-49
2022/06/09 06:08:14;0.00;0.00;0.62;0.00;0.00;0.62;9.10;8.10;;;23.30;39.40;;;;;;2255784;61;20500;-49
2022/06/09 06:10:59;0.00;0.00;0.62;0.00;0.00;0.62;8.73;7.93;;;23.40;38.90;;;;;;2255600;61;20893;-47
2022/06/09 06:13:45;0.00;0.00;0.62;0.00;0.00;0.62;12.40;9.43;;;23.40;38.90;;;;;;2254842;61;20366;-52
2022/06/09 06:16:31;0.00;0.00;0.62;0.00;0.00;0.62;8.30;7.50;;;23.40;38.90;;;;;;2255903;61;21108;-52
2022/06/09 06:19:19;0.00;0.00;0.62;0.00;0.00;0.62;9.83;7.43;;;23.40;38.90;;;;;;2255029;61;20424;-53
2022/06/09 06:22:04;0.00;0.00;0.62;0.00;0.00;0.62;7.97;7.17;;;23.30;38.80;;;;;;2255230;61;20401;-50
2022/06/09 06:24:49;0.00;0.00;0.62;0.00;0.00;0.62;7.53;6.13;;;23.30;38.70;;;;;;2255766;61;20369;-52
2022/06/09 06:27:34;0.00;0.00;0.62;0.00;0.00;0.62;7.37;6.67;;;23.40;38.70;;;;;;2254633;61;20937;-49
2022/06/09 06:30:19;0.00;0.00;0.62;0.00;0.00;0.62;7.40;6.50;;;23.40;38.50;;;;;;2255503;61;20377;-52
2022/06/09 06:33:05;0.00;0.00;0.62;0.00;0.00;0.62;6.83;6.17;;;23.40;38.40;;;;;;2254781;61;20420;-51
2022/06/09 06:35:50;0.00;0.00;0.62;0.00;0.00;0.62;4.80;4.40;;;23.40;38.40;;;;;;2254038;61;20459;-50
2022/06/09 06:38:36;0.00;0.00;0.62;0.00;0.00;0.62;5.77;5.23;;;23.40;38.40;;;;;;2255905;61;20369;-53
2022/06/09 06:41:22;0.00;0.00;0.62;0.00;0.00;0.62;6.70;5.70;;;23.40;38.40;;;;;;2255605;61;20440;-54
2022/06/09 06:44:07;0.00;0.00;0.62;0.00;0.00;0.62;7.97;5.60;;;23.50;38.50;;;;;;2255355;61;20417;-50
2022/06/09 06:46:52;0.00;0.00;0.62;0.00;0.00;0.62;6.70;6.00;;;23.50;38.50;;;;;;2256062;61;20365;-53
2022/06/09 06:49:38;0.00;0.00;0.62;0.00;0.00;0.62;7.00;5.03;;;23.50;38.60;;;;;;2255145;61;20929;-50
2022/06/09 06:52:23;0.00;0.00;0.62;0.00;0.00;0.62;7.40;5.67;;;23.50;38.50;;;;;;2254871;61;20520;-50
2022/06/09 06:55:13;0.00;0.00;0.62;0.00;0.00;0.62;7.23;6.63;;;23.50;38.30;;;;;;2255892;61;20800;-50
2022/06/09 06:57:58;0.00;0.00;0.62;0.00;0.00;0.62;6.77;5.93;;;23.50;38.20;;;;;;2253585;61;20956;-53
2022/06/09 07:00:43;0.00;0.00;0.62;0.00;0.00;0.62;10.40;6.13;;;23.60;38.20;;;;;;2255352;61;20389;-52
2022/06/09 07:03:31;0.00;0.00;0.62;0.00;0.00;0.62;6.00;5.33;;;23.50;38.20;;;;;;2255844;61;20436;-49
2022/06/09 07:06:18;0.00;0.00;0.62;0.00;0.00;0.62;6.50;5.77;;;23.60;38.30;;;;;;2253969;61;20369;-47
2022/06/09 07:09:02;0.00;0.00;0.62;0.00;0.00;0.62;5.30;4.70;;;23.60;38.30;;;;;;2256005;61;20803;-51
2022/06/09 07:11:47;0.00;0.00;0.62;0.00;0.00;0.62;5.00;4.60;;;23.60;38.40;;;;;;2254839;61;20829;-48
2022/06/09 07:14:34;0.00;0.00;0.62;0.00;0.00;0.62;7.00;5.20;;;23.60;38.60;;;;;;2255852;61;20365;-52
2022/06/09 07:17:18;0.00;0.00;0.62;0.00;0.00;0.62;5.60;4.40;;;23.60;38.60;;;;;;2255856;61;20366;-52
2022/06/09 07:20:04;0.00;0.00;0.62;0.00;0.00;0.62;5.70;4.97;;;23.60;38.50;;;;;;2254778;61;20373;-52
2022/06/09 07:22:50;0.00;0.00;0.62;0.00;0.00;0.62;6.10;4.30;;;23.60;38.50;;;;;;2255770;61;20382;-54
2022/06/09 07:25:35;0.00;0.00;0.62;0.00;0.00;0.62;6.30;4.87;;;23.70;38.60;;;;;;2255814;61;20412;-52
2022/06/09 07:28:20;0.00;0.00;0.62;0.00;0.00;0.62;5.50;5.00;;;23.70;38.60;;;;;;2255483;61;20369;-48
2022/06/09 07:31:06;0.00;0.00;0.62;0.00;0.00;0.62;4.70;3.90;;;23.70;38.50;;;;;;2255802;61;20958;-54
2022/06/09 07:33:50;0.00;0.00;0.62;0.00;0.00;0.62;8.10;4.87;;;23.70;38.60;;;;;;2254820;61;20384;-55
2022/06/09 07:36:36;0.00;0.00;0.62;0.00;0.00;0.62;4.60;3.70;;;23.80;38.60;;;;;;2255490;61;20378;-52
2022/06/09 07:39:24;0.00;0.00;0.62;0.00;0.00;0.62;6.57;4.40;;;23.80;38.50;;;;;;2255736;61;20889;-51
2022/06/09 07:42:09;0.00;0.00;0.62;0.00;0.00;0.62;6.13;4.50;;;23.80;38.50;;;;;;2254630;61;20402;-54
2022/06/09 07:44:54;0.00;0.00;0.62;0.00;0.00;0.62;5.50;4.60;;;23.80;38.50;;;;;;2255730;61;20776;-54
2022/06/09 07:47:39;0.00;0.00;0.62;0.00;0.00;0.62;4.43;4.03;;;23.90;38.50;;;;;;2255746;61;20374;-55
2022/06/09 07:50:24;0.00;0.00;0.62;0.00;0.00;0.62;5.63;4.50;;;23.90;38.40;;;;;;2254651;61;20362;-52
2022/06/09 07:53:08;0.00;0.00;0.62;0.00;0.00;0.62;4.53;4.13;;;23.90;38.40;;;;;;2255584;61;20378;-55
2022/06/09 07:55:55;0.00;0.00;0.62;0.00;0.00;0.62;4.43;4.00;;;24.00;38.50;;;;;;2254859;61;20390;-56
2022/06/09 07:58:40;0.00;0.00;0.62;0.00;0.00;0.62;3.70;3.30;;;24.00;38.40;;;;;;2255712;61;20390;-57
2022/06/09 08:01:24;0.00;0.00;0.62;0.00;0.00;0.62;4.13;3.73;;;24.00;38.30;;;;;;2255455;61;20855;-53
2022/06/09 08:04:09;0.00;0.00;0.62;0.00;0.00;0.62;5.47;4.57;;;24.10;38.40;;;;;;2254902;61;20485;-57
2022/06/09 08:06:54;0.00;0.00;0.62;0.00;0.00;0.62;5.97;4.30;;;24.10;38.30;;;;;;2255747;61;20421;-59
2022/06/09 08:09:38;0.00;0.00;0.62;0.00;0.00;0.62;5.30;4.80;;;24.10;38.30;;;;;;2256944;61;20714;-57
2022/06/09 08:12:25;0.00;0.00;0.62;0.00;0.00;0.62;7.50;4.17;;;24.10;38.20;;;;;;2254524;61;20474;-52
2022/06/09 08:15:10;0.00;0.00;0.62;0.00;0.00;0.62;4.47;3.80;;;24.20;38.20;;;;;;2255756;61;20394;-54
2022/06/09 08:17:57;0.00;0.00;0.62;0.00;0.00;0.62;6.20;3.97;;;24.20;38.20;;;;;;2255205;61;20509;-47
2022/06/09 08:20:44;0.00;0.00;0.62;0.00;0.00;0.62;4.40;4.00;;;24.20;38.10;;;;;;2255382;61;20398;-51
2022/06/09 08:23:29;0.00;0.00;0.62;0.00;0.00;0.62;4.57;4.10;;;24.30;38.20;;;;;;2255060;61;20872;-58
2022/06/09 08:26:14;0.00;0.00;0.62;0.00;0.00;0.62;4.43;4.00;;;24.30;38.20;;;;;;2254664;61;20449;-55
2022/06/09 08:29:01;0.00;0.00;0.62;0.00;0.00;0.62;4.30;3.90;;;24.30;38.10;;;;;;2255689;61;20354;-56
2022/06/09 08:31:45;0.00;0.00;0.62;0.00;0.00;0.62;5.00;4.60;;;24.40;38.20;;;;;;2255485;61;20402;-53
2022/06/09 08:34:30;0.00;0.00;0.62;0.00;0.00;0.62;4.33;3.50;;;24.40;38.10;;;;;;2256737;61;20922;-59
2022/06/09 08:37:15;0.00;0.00;0.62;0.00;0.00;0.62;5.97;4.43;;;24.50;38.20;;;;;;2255291;61;20362;-55
2022/06/09 08:39:59;0.00;0.00;0.62;0.00;0.00;0.62;4.33;3.93;;;24.40;38.10;;;;;;2254886;61;20408;-54
2022/06/09 08:43:07;0.00;0.00;0.62;0.00;0.00;0.62;3.80;3.50;;;24.50;38.10;;;;;;2255342;61;20470;-55
2022/06/09 08:45:57;0.00;0.00;0.62;0.00;0.00;0.62;4.30;3.70;;;24.50;38.10;;;;;;2255675;61;20438;-57
2022/06/09 08:48:44;0.00;0.00;0.62;0.00;0.00;0.62;4.10;3.70;;;24.60;38.10;;;;;;2253330;61;20369;-52
2022/06/09 08:51:38;0.00;0.00;0.62;0.00;0.00;0.62;5.63;4.63;;;24.60;38.00;;;;;;2255155;61;20382;-55
2022/06/09 08:54:27;0.00;0.00;0.62;0.00;0.00;0.62;5.47;4.20;;;24.60;37.90;;;;;;2255648;61;20358;-56
2022/06/09 08:57:17;0.00;0.00;0.62;0.00;0.00;0.62;4.33;3.80;;;24.70;37.90;;;;;;2254826;61;20385;-50
2022/06/09 09:00:03;0.00;0.00;0.62;0.00;0.00;0.62;6.23;4.30;;;24.70;37.90;;;;;;2255269;61;20361;-54
2022/06/09 09:02:54;0.00;0.00;0.62;0.00;0.00;0.62;5.77;4.00;;;24.70;37.80;;;;;;2254800;61;20377;-51
2022/06/09 09:05:44;0.00;0.00;0.62;0.00;0.00;0.62;7.60;3.80;;;24.80;37.90;;;;;;2255407;61;20366;-56
2022/06/09 09:08:29;0.00;0.00;0.62;0.00;0.00;0.62;4.43;3.73;;;24.80;37.80;;;;;;2255283;61;20450;-51
2022/06/09 09:11:32;0.00;0.00;0.62;0.00;0.00;0.62;4.60;3.70;;;24.80;37.80;;;;;;2254718;61;20390;-50
2022/06/09 09:14:26;0.00;0.00;0.62;0.00;0.00;0.62;4.00;3.70;;;24.80;37.80;;;;;;2254695;61;20837;-55
2022/06/09 09:17:19;0.00;0.00;0.62;0.00;0.00;0.62;3.83;3.50;;;24.90;37.80;;;;;;2255316;61;20424;-58
2022/06/09 09:20:18;0.00;0.00;0.62;0.00;0.00;0.62;4.00;3.53;;;24.90;37.80;;;;;;2253685;61;20568;-51
2022/06/09 09:24:00;0.00;0.00;0.62;0.00;0.00;0.62;6.53;4.40;;;24.90;37.70;;;;;;2381426;55;20379;31
2022/06/09 09:26:56;0.00;0.00;0.62;0.00;0.00;0.62;4.10;3.50;;;25.00;37.80;;;;;;2368146;46;20432;-60
2022/06/09 09:29:47;0.00;0.00;0.62;0.00;0.00;0.62;5.60;4.23;;;25.00;37.80;;;;;;2244854;61;20392;-51
2022/06/09 09:32:40;0.00;0.00;0.62;0.00;0.00;0.62;4.00;3.50;;;25.00;37.70;;;;;;2243756;61;20895;-58
2022/06/09 09:35:31;0.00;0.00;0.62;0.00;0.00;0.62;4.00;3.30;;;25.00;37.70;;;;;;2244656;61;20460;-60
2022/06/09 09:38:20;0.00;0.00;0.62;0.00;0.00;0.62;3.90;3.60;;;25.10;37.70;;;;;;2244822;61;20389;-55
2022/06/09 09:41:05;0.00;0.00;0.62;0.00;0.00;0.62;4.80;4.30;;;25.10;37.70;;;;;;2243399;61;20440;-60
2022/06/09 09:43:50;0.00;0.00;0.62;0.00;0.00;0.62;4.37;3.53;;;25.10;37.60;;;;;;2271056;55;20489;-57
2022/06/09 09:46:35;0.00;0.00;0.62;0.00;0.00;0.62;4.50;3.50;;;25.20;37.60;;;;;;2263428;61;20370;-57
2022/06/09 09:49:29;0.00;0.00;0.62;0.00;0.00;0.62;4.80;3.60;;;25.20;37.60;;;;;;2254562;61;20451;-59
2022/06/09 09:52:40;0.00;0.00;0.62;0.00;0.00;0.62;3.90;3.20;;;25.30;37.60;;;;;;2251007;61;20945;-61
2022/06/09 09:55:34;0.00;0.00;0.62;0.00;0.00;0.62;4.77;3.90;;;25.30;37.60;;;;;;2246482;61;20391;-58
2022/06/09 09:58:39;0.00;0.00;0.62;0.00;0.00;0.62;3.87;3.57;;;25.30;37.50;;;;;;2248163;61;20387;-55
2022/06/09 10:08:35;0.00;0.00;0.62;0.00;0.00;0.62;6.63;3.73;;;25.40;37.50;;;;;;2247094;61;20383;-61
2022/06/09 10:10:58;0.00;0.00;0.62;0.00;0.00;0.62;5.20;3.83;;;25.50;37.30;;;;;;2248172;61;20952;-57
2022/06/09 10:13:49;0.00;0.00;0.62;0.00;0.00;0.62;3.80;3.33;;;25.50;37.30;;;;;;2248037;61;20801;-57
2022/06/09 10:16:34;0.00;0.00;0.62;0.00;0.00;0.62;5.43;3.60;;;25.50;37.10;;;;;;2247162;61;20367;-56
2022/06/09 10:19:23;0.00;0.00;0.62;0.00;0.00;0.62;4.87;3.43;;;25.60;37.20;;;;;;2248183;61;20359;-55
2022/06/09 10:22:19;0.00;0.00;0.62;0.00;0.00;0.62;3.50;3.20;;;25.60;37.80;;;;;;2248117;61;20395;-60
2022/06/09 10:25:24;0.00;0.00;0.62;0.00;0.00;0.62;3.77;3.40;;;25.70;37.10;;;;;;2246905;61;20855;-51
2022/06/09 10:28:18;0.00;0.00;0.62;0.00;0.00;0.62;3.40;3.10;;;25.70;37.70;;;;;;2248368;61;20395;-53
2022/06/09 10:31:16;0.00;0.00;0.62;0.00;0.00;0.62;5.03;3.33;;;25.70;36.90;;;;;;2247034;61;20887;-52
2022/06/09 10:34:11;0.00;0.00;0.62;0.00;0.00;0.62;3.20;2.90;;;25.80;37.00;;;;;;2248040;61;20958;-53
2022/06/09 10:37:01;0.00;0.00;0.62;0.00;0.00;0.62;3.87;2.97;;;25.80;36.90;;;;;;2245751;61;20422;-55
2022/06/09 10:39:54;0.00;0.00;0.62;0.00;0.00;0.62;4.10;3.40;;;25.80;36.70;;;;;;2245789;61;20968;-57
2022/06/09 10:42:50;0.00;0.00;0.62;0.00;0.00;0.62;4.07;3.30;;;25.90;36.80;;;;;;2248122;61;20431;-54
2022/06/09 10:45:43;0.00;0.00;0.62;0.00;0.00;0.62;5.50;3.10;;;25.90;36.60;;;;;;2246927;61;20395;-59
2022/06/09 10:55:14;0.00;0.00;0.62;0.00;0.00;0.62;4.90;3.10;;;26.00;36.60;;;;;;2246884;61;20438;-54
2022/06/09 10:58:08;0.00;0.00;0.62;0.00;0.00;0.62;3.17;2.87;;;26.00;36.50;;;;;;2247770;61;20352;-61
2022/06/09 11:00:54;0.00;0.00;0.62;0.00;0.00;0.62;3.30;3.00;;;26.10;36.60;;;;;;2246307;61;20395;-59
2022/06/09 11:03:49;0.00;0.00;0.62;0.00;0.00;0.62;5.07;3.17;;;26.10;36.60;;;;;;2246929;61;20464;-61
2022/06/09 11:06:56;0.00;0.00;0.62;0.00;0.00;0.62;3.93;3.50;;;26.20;36.60;;;;;;2247023;61;20900;-57
2022/06/09 11:09:58;0.00;0.00;0.62;0.00;0.00;0.62;3.50;3.17;;;26.10;36.50;;;;;;2247064;61;20415;-56
2022/06/09 11:12:57;0.00;0.00;0.62;0.00;0.00;0.62;7.33;3.33;;;26.20;36.50;;;;;;2247476;61;20379;-61
2022/06/09 11:15:53;0.00;0.00;0.62;0.00;0.00;0.62;2.90;2.60;;;26.20;36.40;;;;;;2243225;61;20787;-60
2022/06/09 11:18:48;0.00;0.00;0.62;0.00;0.00;0.62;4.17;3.77;;;26.30;36.50;;;;;;2247158;61;20372;-59
2022/06/09 11:21:41;0.00;0.00;0.62;0.00;0.00;0.62;4.80;3.43;;;26.30;37.10;;;;;;2247474;61;20415;-58
2022/06/09 11:24:34;0.00;0.00;0.62;0.00;0.00;0.62;4.00;3.10;;;26.30;36.40;;;;;;2246855;61;20435;-57